sensor_id;sensor_type;location;lat;lon;timestamp;P1;durP1;ratioP1;P2;durP2;ratioP2
71902;SDS011;59778;50.310;18.780;2022-07-17T00:13:03;15.00;;;6.67;;
71902;SDS011;59778;50.310;18.780;2022-07-17T00:28:24;17.80;;;9.13;;
71902;SDS011;59778;50.310;18.780;2022-07-17T00:43:46;9.93;;;5.00;;
71902;SDS011;59778;50.310;18.780;2022-07-17T00:59:07;9.27;;;4.80;;
71902;SDS011;59778;50.310;18.780;2022-07-17T01:14:30;12.40;;;5.73;;
71902;SDS011;59778;50.310;18.780;2022-07-17T01:29:52;8.30;;;4.47;;
71902;SDS011;59778;50.310;18.780;2022-07-17T01:45:18;10.80;;;4.10;;
71902;SDS011;59778;50.310;18.780;2022-07-17T02:00:39;6.90;;;3.80;;
71902;SDS011;59778;50.310;18.780;2022-07-17T02:16:01;8.63;;;3.73;;
71902;SDS011;59778;50.310;18.780;2022-07-17T02:31:22;18.23;;;4.00;;
71902;SDS011;59778;50.310;18.780;2022-07-17T02:46:43;8.90;;;3.67;;
71902;SDS011;59778;50.310;18.780;2022-07-17T03:02:04;8.00;;;3.83;;
71902;SDS011;59778;50.310;18.780;2022-07-17T03:17:26;6.30;;;3.37;;
71902;SDS011;59778;50.310;18.780;2022-07-17T03:32:47;7.67;;;3.53;;
71902;SDS011;59778;50.310;18.780;2022-07-17T03:48:08;7.70;;;4.03;;
71902;SDS011;59778;50.310;18.780;2022-07-17T04:03:29;6.47;;;3.33;;
71902;SDS011;59778;50.310;18.780;2022-07-17T04:18:50;7.47;;;4.03;;
71902;SDS011;59778;50.310;18.780;2022-07-17T04:34:11;9.30;;;4.53;;
71902;SDS011;59778;50.310;18.780;2022-07-17T04:49:32;11.77;;;5.60;;
71902;SDS011;59778;50.310;18.780;2022-07-17T05:04:53;13.43;;;6.40;;
71902;SDS011;59778;50.310;18.780;2022-07-17T05:20:15;11.10;;;3.83;;
71902;SDS011;59778;50.310;18.780;2022-07-17T05:35:36;6.33;;;2.27;;
71902;SDS011;59778;50.310;18.780;2022-07-17T05:50:57;11.17;;;3.00;;
71902;SDS011;59778;50.310;18.780;2022-07-17T06:06:18;12.13;;;2.00;;
71902;SDS011;59778;50.310;18.780;2022-07-17T06:21:39;5.90;;;1.50;;
71902;SDS011;59778;50.310;18.780;2022-07-17T06:37:00;6.43;;;1.50;;
71902;SDS011;59778;50.310;18.780;2022-07-17T06:52:21;7.37;;;1.93;;
71902;SDS011;59778;50.310;18.780;2022-07-17T07:07:43;6.73;;;1.60;;
71902;SDS011;59778;50.310;18.780;2022-07-17T07:23:04;5.83;;;1.37;;
71902;SDS011;59778;50.310;18.780;2022-07-17T07:38:25;4.50;;;1.10;;
71902;SDS011;59778;50.310;18.780;2022-07-17T07:53:46;9.23;;;1.10;;
71902;SDS011;59778;50.310;18.780;2022-07-17T08:09:08;4.07;;;1.07;;
71902;SDS011;59778;50.310;18.780;2022-07-17T08:24:29;3.90;;;0.90;;
71902;SDS011;59778;50.310;18.780;2022-07-17T08:39:50;5.63;;;1.03;;
71902;SDS011;59778;50.310;18.780;2022-07-17T08:55:12;5.50;;;1.17;;
71902;SDS011;59778;50.310;18.780;2022-07-17T09:10:36;6.07;;;1.07;;
71902;SDS011;59778;50.310;18.780;2022-07-17T09:25:57;5.50;;;1.13;;
71902;SDS011;59778;50.310;18.780;2022-07-17T09:41:19;4.10;;;0.90;;
71902;SDS011;59778;50.310;18.780;2022-07-17T09:56:41;3.57;;;0.87;;
71902;SDS011;59778;50.310;18.780;2022-07-17T10:12:03;2.90;;;0.87;;
71902;SDS011;59778;50.310;18.780;2022-07-17T10:27:27;5.53;;;1.03;;
71902;SDS011;59778;50.310;18.780;2022-07-17T11:13:43;4.10;;;1.10;;
71902;SDS011;59778;50.310;18.780;2022-07-17T11:29:04;5.20;;;1.27;;
71902;SDS011;59778;50.310;18.780;2022-07-17T11:44:26;3.37;;;1.20;;
71902;SDS011;59778;50.310;18.780;2022-07-17T11:59:47;4.90;;;1.00;;
71902;SDS011;59778;50.310;18.780;2022-07-17T12:15:09;4.77;;;1.30;;
71902;SDS011;59778;50.310;18.780;2022-07-17T12:30:30;4.13;;;1.33;;
71902;SDS011;59778;50.310;18.780;2022-07-17T12:45:53;5.80;;;1.63;;
71902;SDS011;59778;50.310;18.780;2022-07-17T13:01:14;4.57;;;1.50;;
71902;SDS011;59778;50.310;18.780;2022-07-17T13:16:36;3.10;;;1.07;;
71902;SDS011;59778;50.310;18.780;2022-07-17T13:31:57;3.63;;;1.10;;
71902;SDS011;59778;50.310;18.780;2022-07-17T13:47:18;4.47;;;1.23;;
71902;SDS011;59778;50.310;18.780;2022-07-17T14:02:39;4.07;;;1.00;;
71902;SDS011;59778;50.310;18.780;2022-07-17T14:18:01;4.33;;;1.10;;
71902;SDS011;59778;50.310;18.780;2022-07-17T14:33:22;4.53;;;1.20;;
71902;SDS011;59778;50.310;18.780;2022-07-17T14:48:43;5.70;;;1.10;;
71902;SDS011;59778;50.310;18.780;2022-07-17T15:04:04;5.20;;;1.30;;
71902;SDS011;59778;50.310;18.780;2022-07-17T15:19:26;5.10;;;1.40;;
71902;SDS011;59778;50.310;18.780;2022-07-17T15:34:47;3.10;;;1.13;;
71902;SDS011;59778;50.310;18.780;2022-07-17T15:50:08;4.70;;;1.50;;
71902;SDS011;59778;50.310;18.780;2022-07-17T16:05:29;2.03;;;1.00;;
71902;SDS011;59778;50.310;18.780;2022-07-17T16:20:50;3.10;;;1.13;;
71902;SDS011;59778;50.310;18.780;2022-07-17T16:36:12;2.63;;;1.00;;
71902;SDS011;59778;50.310;18.780;2022-07-17T16:51:33;4.03;;;1.30;;
71902;SDS011;59778;50.310;18.780;2022-07-17T17:06:54;5.10;;;1.40;;
71902;SDS011;59778;50.310;18.780;2022-07-17T17:22:15;3.90;;;1.00;;
71902;SDS011;59778;50.310;18.780;2022-07-17T17:37:36;5.17;;;1.20;;
71902;SDS011;59778;50.310;18.780;2022-07-17T17:52:57;6.43;;;1.40;;
71902;SDS011;59778;50.310;18.780;2022-07-17T18:08:19;5.50;;;1.33;;
71902;SDS011;59778;50.310;18.780;2022-07-17T18:23:40;4.20;;;1.43;;
71902;SDS011;59778;50.310;18.780;2022-07-17T18:39:01;5.63;;;2.30;;
71902;SDS011;59778;50.310;18.780;2022-07-17T18:54:22;7.93;;;3.70;;
71902;SDS011;59778;50.310;18.780;2022-07-17T19:09:46;7.70;;;2.67;;
71902;SDS011;59778;50.310;18.780;2022-07-17T19:25:08;5.13;;;2.13;;
71902;SDS011;59778;50.310;18.780;2022-07-17T19:40:29;23.83;;;12.87;;
71902;SDS011;59778;50.310;18.780;2022-07-17T19:55:51;15.23;;;7.83;;
71902;SDS011;59778;50.310;18.780;2022-07-17T20:11:31;7.10;;;2.70;;
71902;SDS011;59778;50.310;18.780;2022-07-17T20:26:52;11.80;;;4.10;;
71902;SDS011;59778;50.310;18.780;2022-07-17T20:42:13;11.50;;;5.37;;
71902;SDS011;59778;50.310;18.780;2022-07-17T20:57:34;10.43;;;5.23;;
71902;SDS011;59778;50.310;18.780;2022-07-17T21:12:56;18.50;;;6.50;;
71902;SDS011;59778;50.310;18.780;2022-07-17T21:28:17;15.93;;;6.27;;
71902;SDS011;59778;50.310;18.780;2022-07-17T21:43:40;12.27;;;5.80;;
71902;SDS011;59778;50.310;18.780;2022-07-17T21:59:01;12.03;;;6.00;;
71902;SDS011;59778;50.310;18.780;2022-07-17T22:14:23;15.87;;;6.30;;
71902;SDS011;59778;50.310;18.780;2022-07-17T22:29:44;9.80;;;4.30;;
71902;SDS011;59778;50.310;18.780;2022-07-17T22:45:06;10.83;;;3.73;;
71902;SDS011;59778;50.310;18.780;2022-07-17T23:00:27;10.00;;;3.53;;
71902;SDS011;59778;50.310;18.780;2022-07-17T23:15:49;7.80;;;3.90;;
71902;SDS011;59778;50.310;18.780;2022-07-17T23:31:10;8.40;;;3.90;;
71902;SDS011;59778;50.310;18.780;2022-07-17T23:46:31;9.67;;;3.27;;
